»·PEaware :: N738VA L52-L88

N738VA :: L52-L88

FLIGHT INFORMATION

Flight Status: Arrived
Operator: Privately registered:
United States
More flights under this callsign
Pilot: Stephen Y. (17713)
Aircraft: CESSNA 172 SKYHAWK
(C172)
More flights by this aircraft type
Origin: L52 Oceano Co
United States
Destination: L88 New Cuyama
United States
More flights between these airports :: More routes between these airports
Route: DIRECT
File this flight plan on PilotEdge
Remarks: cat 1
Altitude:
(Current/Filed)
5,500ft
Speed:
(Current/Filed)
115kts
Departed: 05-Jan-18 11:24 AM
Arrived: 05-Jan-18 11:52 AM
Distance/Time
Traveled:
47nm/0:28
Distance/Time
To Go:
Arrived

Flight Plot

Page will automatically refresh every two minutes.


Map Options




Map Legend


Flown Route
Filed Route
Departure Airport
Arrival Airport
Navaid (VOR, NDB)
Fix

Horizontal Profiles

Position Reports

Time Latitude Longitude Heading Altitude Ground
Speed
05-Jan-18 11:11 35.103533 -120.625018 269 14ft 0kts
05-Jan-18 11:12 35.103533 -120.625018 269 14ft 0kts
05-Jan-18 11:13 35.103533 -120.625018 269 14ft 0kts
05-Jan-18 11:14 35.103533 -120.625018 269 14ft 0kts
05-Jan-18 11:15 35.103533 -120.625018 269 14ft 0kts
05-Jan-18 11:16 35.103533 -120.625018 269 14ft 0kts
05-Jan-18 11:17 35.103533 -120.625018 269 14ft 0kts
05-Jan-18 11:18 35.103533 -120.625018 269 14ft 0kts
05-Jan-18 11:19 35.103533 -120.625018 269 14ft 0kts
05-Jan-18 11:20 35.103533 -120.625018 269 14ft 0kts
05-Jan-18 11:21 35.103533 -120.625018 269 14ft 0kts
05-Jan-18 11:22 35.103533 -120.625018 269 14ft 0kts
05-Jan-18 11:23 35.103578 -120.624921 113 14ft 0kts
05-Jan-18 11:24 35.103570 -120.624901 118 14ft 0kts
05-Jan-18 11:25 35.103570 -120.624901 118 14ft 0kts
05-Jan-18 11:26 35.100820 -120.621826 132 17ft 9kts
05-Jan-18 11:27 35.099567 -120.619495 122 17ft 0kts
05-Jan-18 11:28 35.099524 -120.619419 117 17ft 0kts
05-Jan-18 11:29 35.100275 -120.619976 304 17ft 11kts
05-Jan-18 11:30 35.113971 -120.630335 349 783ft 85kts
05-Jan-18 11:31 35.113238 -120.608193 139 1987ft 86kts
05-Jan-18 11:32 35.094993 -120.578116 109 2446ft 124kts
05-Jan-18 11:33 35.088999 -120.544087 124 3519ft 103kts
05-Jan-18 11:34 35.078168 -120.510643 120 4336ft 107kts
05-Jan-18 11:35 35.063048 -120.477790 118 5022ft 119kts
05-Jan-18 11:36 35.055449 -120.438451 110 5711ft 122kts
05-Jan-18 11:37 35.047576 -120.402606 114 5729ft 106kts
05-Jan-18 11:38 35.044655 -120.365545 104 5597ft 111kts
05-Jan-18 11:39 35.040149 -120.328937 94 5489ft 113kts
05-Jan-18 11:40 35.034651 -120.290977 104 5541ft 128kts
05-Jan-18 11:41 35.027442 -120.247970 105 5662ft 128kts
05-Jan-18 11:42 35.019418 -120.203637 107 5707ft 133kts
05-Jan-18 11:43 35.012101 -120.157908 97 5614ft 158kts
05-Jan-18 11:44 35.004903 -120.108351 108 5681ft 142kts
05-Jan-18 11:45 34.998113 -120.060428 111 5781ft 149kts
05-Jan-18 11:46 34.991164 -120.011403 103 5920ft 141kts
05-Jan-18 11:47 34.983376 -119.965972 108 6284ft 135kts
05-Jan-18 11:48 34.973572 -119.918992 113 6170ft 150kts
05-Jan-18 11:49 34.968964 -119.895977 102 6182ft 152kts
05-Jan-18 11:50 34.967162 -119.859250 95 6077ft 146kts
05-Jan-18 11:51 34.965359 -119.838344 106 5731ft 144kts
05-Jan-18 11:52 34.958655 -119.804533 108 4532ft 140kts
05-Jan-18 11:53 34.954431 -119.787882 110 3934ft 140kts
05-Jan-18 11:54 34.945610 -119.744648 89 2958ft 134kts
05-Jan-18 11:55 34.941246 -119.701614 104 2753ft 122kts
05-Jan-18 11:56 34.929907 -119.666310 113 2853ft 96kts
05-Jan-18 11:57 34.933728 -119.666905 278 2532ft 53kts
05-Jan-18 11:58 34.938559 -119.682266 297 2191ft 26kts
05-Jan-18 11:59 34.940731 -119.687632 287 2167ft 9kts
05-Jan-18 12:00 34.943021 -119.691027 5 2155ft 0kts
05-Jan-18 12:01 34.943021 -119.691027 5 2155ft 0kts
05-Jan-18 12:02 34.943021 -119.691027 5 2155ft 0kts
05-Jan-18 12:03 34.943021 -119.691027 5 2155ft 0kts

Navigation Log

Ident Type
Flight plan parsing failed, navigation log unavailable